sensor_id;sensor_type;location;lat;lon;timestamp;P1;durP1;ratioP1;P2;durP2;ratioP2
75165;SDS011;63747;48.042;10.088;2022-10-16T00:01:41;4.38;;;2.78;;
75165;SDS011;63747;48.042;10.088;2022-10-16T00:04:42;9.05;;;2.72;;
75165;SDS011;63747;48.042;10.088;2022-10-16T00:07:43;5.43;;;2.85;;
75165;SDS011;63747;48.042;10.088;2022-10-16T00:10:43;4.20;;;2.90;;
75165;SDS011;63747;48.042;10.088;2022-10-16T00:13:45;4.85;;;3.15;;
75165;SDS011;63747;48.042;10.088;2022-10-16T00:16:48;4.65;;;2.58;;
75165;SDS011;63747;48.042;10.088;2022-10-16T00:19:49;4.10;;;2.13;;
75165;SDS011;63747;48.042;10.088;2022-10-16T00:22:49;3.72;;;2.25;;
75165;SDS011;63747;48.042;10.088;2022-10-16T00:25:57;6.27;;;2.53;;
75165;SDS011;63747;48.042;10.088;2022-10-16T00:29:06;5.93;;;2.75;;
75165;SDS011;63747;48.042;10.088;2022-10-16T00:32:06;6.28;;;2.50;;
75165;SDS011;63747;48.042;10.088;2022-10-16T00:35:07;5.40;;;2.55;;
75165;SDS011;63747;48.042;10.088;2022-10-16T00:38:08;7.47;;;2.78;;
75165;SDS011;63747;48.042;10.088;2022-10-16T00:41:16;2.75;;;2.45;;
75165;SDS011;63747;48.042;10.088;2022-10-16T00:47:55;5.68;;;2.30;;
75165;SDS011;63747;48.042;10.088;2022-10-16T00:53:59;6.80;;;2.83;;
75165;SDS011;63747;48.042;10.088;2022-10-16T00:57:01;4.15;;;2.95;;
75165;SDS011;63747;48.042;10.088;2022-10-16T01:00:06;7.10;;;3.38;;
75165;SDS011;63747;48.042;10.088;2022-10-16T01:03:31;5.00;;;2.75;;
75165;SDS011;63747;48.042;10.088;2022-10-16T01:23:27;4.10;;;2.60;;
75165;SDS011;63747;48.042;10.088;2022-10-16T01:30:11;6.20;;;2.58;;
75165;SDS011;63747;48.042;10.088;2022-10-16T01:33:21;7.43;;;2.70;;
75165;SDS011;63747;48.042;10.088;2022-10-16T01:36:31;4.97;;;2.95;;
75165;SDS011;63747;48.042;10.088;2022-10-16T01:39:55;5.80;;;2.97;;
75165;SDS011;63747;48.042;10.088;2022-10-16T01:43:04;4.97;;;2.85;;
75165;SDS011;63747;48.042;10.088;2022-10-16T01:46:13;4.60;;;3.05;;
75165;SDS011;63747;48.042;10.088;2022-10-16T01:49:16;3.85;;;2.88;;
75165;SDS011;63747;48.042;10.088;2022-10-16T01:52:21;6.88;;;3.08;;
75165;SDS011;63747;48.042;10.088;2022-10-16T01:55:26;4.75;;;2.47;;
75165;SDS011;63747;48.042;10.088;2022-10-16T01:58:33;6.13;;;2.47;;
75165;SDS011;63747;48.042;10.088;2022-10-16T02:01:42;5.10;;;2.70;;
75165;SDS011;63747;48.042;10.088;2022-10-16T02:05:05;7.32;;;2.67;;
75165;SDS011;63747;48.042;10.088;2022-10-16T02:08:20;3.60;;;2.33;;
75165;SDS011;63747;48.042;10.088;2022-10-16T02:11:24;3.55;;;2.17;;
75165;SDS011;63747;48.042;10.088;2022-10-16T02:14:25;7.57;;;2.60;;
75165;SDS011;63747;48.042;10.088;2022-10-16T02:17:26;5.07;;;2.60;;
75165;SDS011;63747;48.042;10.088;2022-10-16T02:20:28;5.47;;;2.42;;
75165;SDS011;63747;48.042;10.088;2022-10-16T02:27:47;5.35;;;2.35;;
75165;SDS011;63747;48.042;10.088;2022-10-16T02:30:50;3.88;;;2.05;;
75165;SDS011;63747;48.042;10.088;2022-10-16T02:33:56;5.47;;;2.20;;
75165;SDS011;63747;48.042;10.088;2022-10-16T02:36:59;5.00;;;2.40;;
75165;SDS011;63747;48.042;10.088;2022-10-16T02:40:03;2.60;;;2.08;;
75165;SDS011;63747;48.042;10.088;2022-10-16T02:43:06;6.18;;;2.38;;
75165;SDS011;63747;48.042;10.088;2022-10-16T02:46:07;7.85;;;2.15;;
75165;SDS011;63747;48.042;10.088;2022-10-16T02:49:07;5.63;;;2.30;;
75165;SDS011;63747;48.042;10.088;2022-10-16T02:52:08;7.80;;;2.60;;
75165;SDS011;63747;48.042;10.088;2022-10-16T02:58:17;3.70;;;2.58;;
75165;SDS011;63747;48.042;10.088;2022-10-16T03:01:18;5.30;;;2.30;;
75165;SDS011;63747;48.042;10.088;2022-10-16T03:04:18;6.00;;;1.80;;
75165;SDS011;63747;48.042;10.088;2022-10-16T03:07:19;9.77;;;2.17;;
75165;SDS011;63747;48.042;10.088;2022-10-16T03:10:20;5.07;;;1.90;;
75165;SDS011;63747;48.042;10.088;2022-10-16T03:13:20;3.27;;;1.80;;
75165;SDS011;63747;48.042;10.088;2022-10-16T03:16:21;4.93;;;2.20;;
75165;SDS011;63747;48.042;10.088;2022-10-16T03:19:22;3.13;;;2.27;;
75165;SDS011;63747;48.042;10.088;2022-10-16T03:22:23;6.68;;;2.10;;
75165;SDS011;63747;48.042;10.088;2022-10-16T03:25:24;6.47;;;2.60;;
75165;SDS011;63747;48.042;10.088;2022-10-16T03:28:25;5.78;;;2.10;;
75165;SDS011;63747;48.042;10.088;2022-10-16T03:31:26;7.03;;;2.30;;
75165;SDS011;63747;48.042;10.088;2022-10-16T03:34:26;3.17;;;2.20;;
75165;SDS011;63747;48.042;10.088;2022-10-16T03:37:28;3.92;;;2.00;;
75165;SDS011;63747;48.042;10.088;2022-10-16T03:40:29;5.88;;;2.10;;
75165;SDS011;63747;48.042;10.088;2022-10-16T03:43:32;3.38;;;1.63;;
75165;SDS011;63747;48.042;10.088;2022-10-16T03:46:32;4.33;;;1.87;;
75165;SDS011;63747;48.042;10.088;2022-10-16T03:49:33;4.72;;;1.60;;
75165;SDS011;63747;48.042;10.088;2022-10-16T03:52:42;7.07;;;1.80;;
75165;SDS011;63747;48.042;10.088;2022-10-16T03:55:43;3.50;;;2.05;;
75165;SDS011;63747;48.042;10.088;2022-10-16T03:58:44;7.28;;;1.77;;
75165;SDS011;63747;48.042;10.088;2022-10-16T04:01:44;4.73;;;1.77;;
75165;SDS011;63747;48.042;10.088;2022-10-16T04:04:45;4.03;;;1.80;;
75165;SDS011;63747;48.042;10.088;2022-10-16T04:07:46;5.37;;;1.50;;
75165;SDS011;63747;48.042;10.088;2022-10-16T04:10:47;2.67;;;1.80;;
75165;SDS011;63747;48.042;10.088;2022-10-16T04:17:10;4.45;;;1.80;;
75165;SDS011;63747;48.042;10.088;2022-10-16T04:20:11;4.18;;;1.85;;
75165;SDS011;63747;48.042;10.088;2022-10-16T04:23:12;5.32;;;1.98;;
75165;SDS011;63747;48.042;10.088;2022-10-16T04:26:13;2.83;;;1.80;;
75165;SDS011;63747;48.042;10.088;2022-10-16T04:29:17;2.60;;;1.70;;
75165;SDS011;63747;48.042;10.088;2022-10-16T04:32:17;4.00;;;1.73;;
75165;SDS011;63747;48.042;10.088;2022-10-16T04:35:19;5.65;;;1.85;;
75165;SDS011;63747;48.042;10.088;2022-10-16T04:38:20;6.40;;;1.95;;
75165;SDS011;63747;48.042;10.088;2022-10-16T04:41:21;5.65;;;2.00;;
75165;SDS011;63747;48.042;10.088;2022-10-16T04:44:22;4.18;;;2.05;;
75165;SDS011;63747;48.042;10.088;2022-10-16T04:47:23;4.17;;;2.30;;
75165;SDS011;63747;48.042;10.088;2022-10-16T04:50:23;5.17;;;2.07;;
75165;SDS011;63747;48.042;10.088;2022-10-16T04:53:24;2.73;;;1.77;;
75165;SDS011;63747;48.042;10.088;2022-10-16T04:56:25;7.22;;;2.08;;
75165;SDS011;63747;48.042;10.088;2022-10-16T04:59:26;5.80;;;2.22;;
75165;SDS011;63747;48.042;10.088;2022-10-16T05:02:26;4.00;;;1.90;;
75165;SDS011;63747;48.042;10.088;2022-10-16T05:05:29;3.40;;;2.23;;
75165;SDS011;63747;48.042;10.088;2022-10-16T05:08:30;4.35;;;2.08;;
75165;SDS011;63747;48.042;10.088;2022-10-16T05:11:31;5.72;;;1.92;;
75165;SDS011;63747;48.042;10.088;2022-10-16T05:17:53;5.53;;;2.00;;
75165;SDS011;63747;48.042;10.088;2022-10-16T05:20:54;7.65;;;1.88;;
75165;SDS011;63747;48.042;10.088;2022-10-16T05:23:55;5.23;;;1.93;;
75165;SDS011;63747;48.042;10.088;2022-10-16T05:27:06;1.63;;;1.40;;
75165;SDS011;63747;48.042;10.088;2022-10-16T05:30:06;7.05;;;1.92;;
75165;SDS011;63747;48.042;10.088;2022-10-16T05:37:16;3.78;;;1.90;;
75165;SDS011;63747;48.042;10.088;2022-10-16T05:40:21;4.53;;;2.00;;
75165;SDS011;63747;48.042;10.088;2022-10-16T05:43:22;4.20;;;1.90;;
75165;SDS011;63747;48.042;10.088;2022-10-16T05:46:23;5.53;;;2.00;;
75165;SDS011;63747;48.042;10.088;2022-10-16T05:49:23;3.83;;;2.20;;
75165;SDS011;63747;48.042;10.088;2022-10-16T05:52:24;4.20;;;1.80;;
75165;SDS011;63747;48.042;10.088;2022-10-16T05:55:25;7.07;;;2.50;;
75165;SDS011;63747;48.042;10.088;2022-10-16T05:58:28;3.73;;;2.00;;
75165;SDS011;63747;48.042;10.088;2022-10-16T06:01:30;4.45;;;2.10;;
75165;SDS011;63747;48.042;10.088;2022-10-16T06:04:33;6.35;;;2.30;;
75165;SDS011;63747;48.042;10.088;2022-10-16T06:07:34;5.32;;;2.20;;
75165;SDS011;63747;48.042;10.088;2022-10-16T06:10:38;3.58;;;1.90;;
75165;SDS011;63747;48.042;10.088;2022-10-16T06:13:38;5.97;;;2.03;;
75165;SDS011;63747;48.042;10.088;2022-10-16T06:16:50;3.63;;;2.50;;
75165;SDS011;63747;48.042;10.088;2022-10-16T06:19:53;5.93;;;3.40;;
75165;SDS011;63747;48.042;10.088;2022-10-16T06:22:54;9.07;;;2.83;;
75165;SDS011;63747;48.042;10.088;2022-10-16T06:26:03;3.80;;;2.37;;
75165;SDS011;63747;48.042;10.088;2022-10-16T06:29:14;7.88;;;2.33;;
75165;SDS011;63747;48.042;10.088;2022-10-16T06:32:15;4.33;;;2.50;;
75165;SDS011;63747;48.042;10.088;2022-10-16T06:35:15;5.37;;;2.80;;
75165;SDS011;63747;48.042;10.088;2022-10-16T06:38:16;5.85;;;2.13;;
75165;SDS011;63747;48.042;10.088;2022-10-16T06:41:18;7.13;;;2.40;;
75165;SDS011;63747;48.042;10.088;2022-10-16T06:44:23;3.83;;;2.20;;
75165;SDS011;63747;48.042;10.088;2022-10-16T06:47:24;5.53;;;2.20;;
75165;SDS011;63747;48.042;10.088;2022-10-16T06:50:25;4.20;;;1.92;;
75165;SDS011;63747;48.042;10.088;2022-10-16T06:53:26;6.27;;;2.27;;
75165;SDS011;63747;48.042;10.088;2022-10-16T06:56:29;3.33;;;1.83;;
75165;SDS011;63747;48.042;10.088;2022-10-16T06:59:43;4.78;;;2.03;;
75165;SDS011;63747;48.042;10.088;2022-10-16T07:02:44;3.50;;;2.10;;
75165;SDS011;63747;48.042;10.088;2022-10-16T07:05:45;5.40;;;2.10;;
75165;SDS011;63747;48.042;10.088;2022-10-16T07:08:46;8.80;;;7.93;;
75165;SDS011;63747;48.042;10.088;2022-10-16T07:11:48;8.27;;;7.40;;
75165;SDS011;63747;48.042;10.088;2022-10-16T07:14:49;11.23;;;7.63;;
75165;SDS011;63747;48.042;10.088;2022-10-16T07:17:52;18.90;;;11.32;;
75165;SDS011;63747;48.042;10.088;2022-10-16T07:20:53;20.35;;;10.45;;
75165;SDS011;63747;48.042;10.088;2022-10-16T07:23:57;11.40;;;5.90;;
75165;SDS011;63747;48.042;10.088;2022-10-16T07:26:59;7.22;;;3.40;;
75165;SDS011;63747;48.042;10.088;2022-10-16T07:30:00;3.10;;;2.05;;
75165;SDS011;63747;48.042;10.088;2022-10-16T07:33:01;4.10;;;2.40;;
75165;SDS011;63747;48.042;10.088;2022-10-16T07:36:02;4.45;;;2.42;;
75165;SDS011;63747;48.042;10.088;2022-10-16T07:39:03;39.53;;;24.02;;
75165;SDS011;63747;48.042;10.088;2022-10-16T07:45:05;33.53;;;18.73;;
75165;SDS011;63747;48.042;10.088;2022-10-16T07:51:07;6.60;;;2.90;;
75165;SDS011;63747;48.042;10.088;2022-10-16T07:54:08;7.03;;;3.63;;
75165;SDS011;63747;48.042;10.088;2022-10-16T08:01:09;3.05;;;2.00;;
75165;SDS011;63747;48.042;10.088;2022-10-16T08:04:15;1.95;;;1.50;;
75165;SDS011;63747;48.042;10.088;2022-10-16T08:07:16;4.00;;;1.42;;
75165;SDS011;63747;48.042;10.088;2022-10-16T08:10:31;3.55;;;1.33;;
75165;SDS011;63747;48.042;10.088;2022-10-16T08:13:32;3.28;;;1.52;;
75165;SDS011;63747;48.042;10.088;2022-10-16T08:16:33;2.35;;;1.63;;
75165;SDS011;63747;48.042;10.088;2022-10-16T08:19:34;6.55;;;1.40;;
75165;SDS011;63747;48.042;10.088;2022-10-16T08:22:35;4.00;;;1.77;;
75165;SDS011;63747;48.042;10.088;2022-10-16T08:29:09;2.72;;;1.30;;
75165;SDS011;63747;48.042;10.088;2022-10-16T08:32:17;4.35;;;1.38;;
75165;SDS011;63747;48.042;10.088;2022-10-16T08:35:18;2.78;;;1.40;;
75165;SDS011;63747;48.042;10.088;2022-10-16T08:38:19;3.63;;;1.75;;
75165;SDS011;63747;48.042;10.088;2022-10-16T08:41:27;3.33;;;1.70;;
75165;SDS011;63747;48.042;10.088;2022-10-16T08:44:40;6.95;;;4.28;;
75165;SDS011;63747;48.042;10.088;2022-10-16T08:47:49;3.53;;;1.70;;
75165;SDS011;63747;48.042;10.088;2022-10-16T08:51:02;3.58;;;1.40;;
75165;SDS011;63747;48.042;10.088;2022-10-16T08:54:05;1.58;;;1.08;;
75165;SDS011;63747;48.042;10.088;2022-10-16T08:57:25;2.00;;;1.20;;
75165;SDS011;63747;48.042;10.088;2022-10-16T09:00:36;5.60;;;1.50;;
75165;SDS011;63747;48.042;10.088;2022-10-16T09:03:46;2.85;;;1.40;;
75165;SDS011;63747;48.042;10.088;2022-10-16T09:10:06;2.58;;;1.42;;
75165;SDS011;63747;48.042;10.088;2022-10-16T09:13:35;4.30;;;1.60;;
75165;SDS011;63747;48.042;10.088;2022-10-16T09:23:36;2.80;;;1.50;;
75165;SDS011;63747;48.042;10.088;2022-10-16T09:26:38;3.60;;;1.60;;
75165;SDS011;63747;48.042;10.088;2022-10-16T09:29:45;4.40;;;1.48;;
75165;SDS011;63747;48.042;10.088;2022-10-16T09:32:49;3.17;;;1.48;;
75165;SDS011;63747;48.042;10.088;2022-10-16T09:35:58;1.70;;;1.10;;
75165;SDS011;63747;48.042;10.088;2022-10-16T09:39:07;1.85;;;1.35;;
75165;SDS011;63747;48.042;10.088;2022-10-16T09:42:15;3.72;;;1.70;;
75165;SDS011;63747;48.042;10.088;2022-10-16T09:45:26;2.17;;;1.25;;
75165;SDS011;63747;48.042;10.088;2022-10-16T09:48:37;1.85;;;1.00;;
75165;SDS011;63747;48.042;10.088;2022-10-16T09:55:19;2.45;;;0.90;;
75165;SDS011;63747;48.042;10.088;2022-10-16T09:58:25;2.13;;;1.00;;
75165;SDS011;63747;48.042;10.088;2022-10-16T10:01:38;1.90;;;1.20;;
75165;SDS011;63747;48.042;10.088;2022-10-16T10:04:44;3.03;;;1.13;;
75165;SDS011;63747;48.042;10.088;2022-10-16T10:08:12;2.58;;;1.05;;
75165;SDS011;63747;48.042;10.088;2022-10-16T10:14:50;4.63;;;1.00;;
75165;SDS011;63747;48.042;10.088;2022-10-16T10:21:38;3.63;;;1.10;;
75165;SDS011;63747;48.042;10.088;2022-10-16T10:24:40;2.03;;;1.05;;
75165;SDS011;63747;48.042;10.088;2022-10-16T10:30:55;4.07;;;1.17;;
75165;SDS011;63747;48.042;10.088;2022-10-16T10:44:56;1.23;;;0.73;;
75165;SDS011;63747;48.042;10.088;2022-10-16T11:02:36;2.72;;;1.02;;
75165;SDS011;63747;48.042;10.088;2022-10-16T11:05:43;2.58;;;0.80;;
75165;SDS011;63747;48.042;10.088;2022-10-16T11:08:56;1.88;;;0.80;;
75165;SDS011;63747;48.042;10.088;2022-10-16T11:12:14;2.75;;;0.88;;
75165;SDS011;63747;48.042;10.088;2022-10-16T11:15:31;2.90;;;0.90;;
75165;SDS011;63747;48.042;10.088;2022-10-16T11:18:42;1.58;;;0.80;;
75165;SDS011;63747;48.042;10.088;2022-10-16T11:21:55;2.25;;;0.80;;
75165;SDS011;63747;48.042;10.088;2022-10-16T11:25:05;1.35;;;0.80;;
75165;SDS011;63747;48.042;10.088;2022-10-16T11:28:16;2.42;;;0.80;;
75165;SDS011;63747;48.042;10.088;2022-10-16T11:34:53;2.75;;;0.70;;
75165;SDS011;63747;48.042;10.088;2022-10-16T11:38:00;1.65;;;0.80;;
75165;SDS011;63747;48.042;10.088;2022-10-16T11:41:18;4.43;;;1.00;;
75165;SDS011;63747;48.042;10.088;2022-10-16T11:50:43;1.33;;;0.70;;
75165;SDS011;63747;48.042;10.088;2022-10-16T11:53:59;1.95;;;0.63;;
75165;SDS011;63747;48.042;10.088;2022-10-16T11:57:18;1.52;;;0.63;;
75165;SDS011;63747;48.042;10.088;2022-10-16T12:00:28;1.60;;;0.63;;
75165;SDS011;63747;48.042;10.088;2022-10-16T12:03:40;3.33;;;0.85;;
75165;SDS011;63747;48.042;10.088;2022-10-16T12:07:11;1.48;;;0.70;;
75165;SDS011;63747;48.042;10.088;2022-10-16T12:10:21;3.73;;;0.70;;
75165;SDS011;63747;48.042;10.088;2022-10-16T12:13:37;2.05;;;0.70;;
75165;SDS011;63747;48.042;10.088;2022-10-16T12:16:54;4.20;;;1.50;;
75165;SDS011;63747;48.042;10.088;2022-10-16T12:20:31;1.25;;;0.50;;
75165;SDS011;63747;48.042;10.088;2022-10-16T12:27:04;1.15;;;0.60;;
75165;SDS011;63747;48.042;10.088;2022-10-16T12:30:14;1.05;;;0.50;;
75165;SDS011;63747;48.042;10.088;2022-10-16T12:33:34;1.20;;;0.60;;
75165;SDS011;63747;48.042;10.088;2022-10-16T12:36:37;1.27;;;0.57;;
75165;SDS011;63747;48.042;10.088;2022-10-16T12:39:38;2.08;;;0.70;;
75165;SDS011;63747;48.042;10.088;2022-10-16T12:42:51;1.73;;;0.60;;
75165;SDS011;63747;48.042;10.088;2022-10-16T12:49:48;6.53;;;0.70;;
75165;SDS011;63747;48.042;10.088;2022-10-16T12:52:39;2.88;;;0.80;;
75165;SDS011;63747;48.042;10.088;2022-10-16T12:55:42;1.33;;;0.60;;
75165;SDS011;63747;48.042;10.088;2022-10-16T13:06:38;1.30;;;0.52;;
75165;SDS011;63747;48.042;10.088;2022-10-16T13:20:03;2.60;;;0.52;;
75165;SDS011;63747;48.042;10.088;2022-10-16T13:23:19;1.65;;;0.95;;
75165;SDS011;63747;48.042;10.088;2022-10-16T13:26:31;4.35;;;1.00;;
75165;SDS011;63747;48.042;10.088;2022-10-16T13:29:44;1.17;;;0.60;;
75165;SDS011;63747;48.042;10.088;2022-10-16T13:36:35;1.27;;;0.50;;
75165;SDS011;63747;48.042;10.088;2022-10-16T13:47:40;1.05;;;0.60;;
75165;SDS011;63747;48.042;10.088;2022-10-16T13:58:42;2.55;;;0.60;;
75165;SDS011;63747;48.042;10.088;2022-10-16T14:02:05;2.13;;;0.60;;
75165;SDS011;63747;48.042;10.088;2022-10-16T14:08:55;2.22;;;0.60;;
75165;SDS011;63747;48.042;10.088;2022-10-16T14:12:00;3.83;;;1.00;;
75165;SDS011;63747;48.042;10.088;2022-10-16T14:15:21;3.17;;;1.00;;
75165;SDS011;63747;48.042;10.088;2022-10-16T14:18:24;2.28;;;0.80;;
75165;SDS011;63747;48.042;10.088;2022-10-16T14:21:36;2.90;;;0.57;;
75165;SDS011;63747;48.042;10.088;2022-10-16T14:24:57;2.35;;;0.70;;
75165;SDS011;63747;48.042;10.088;2022-10-16T14:34:53;0.85;;;0.70;;
75165;SDS011;63747;48.042;10.088;2022-10-16T14:37:54;2.20;;;0.60;;
75165;SDS011;63747;48.042;10.088;2022-10-16T14:40:57;1.95;;;0.60;;
75165;SDS011;63747;48.042;10.088;2022-10-16T14:44:12;1.10;;;0.70;;
75165;SDS011;63747;48.042;10.088;2022-10-16T14:47:16;1.23;;;0.60;;
75165;SDS011;63747;48.042;10.088;2022-10-16T14:50:24;0.95;;;0.52;;
75165;SDS011;63747;48.042;10.088;2022-10-16T14:53:25;2.72;;;0.60;;
75165;SDS011;63747;48.042;10.088;2022-10-16T14:56:29;3.13;;;0.55;;
75165;SDS011;63747;48.042;10.088;2022-10-16T14:59:43;1.73;;;0.50;;
75165;SDS011;63747;48.042;10.088;2022-10-16T15:02:46;2.38;;;0.80;;
75165;SDS011;63747;48.042;10.088;2022-10-16T15:05:49;1.65;;;0.70;;
75165;SDS011;63747;48.042;10.088;2022-10-16T15:08:51;4.07;;;0.63;;
75165;SDS011;63747;48.042;10.088;2022-10-16T15:11:52;2.55;;;0.70;;
75165;SDS011;63747;48.042;10.088;2022-10-16T15:14:54;1.20;;;0.60;;
75165;SDS011;63747;48.042;10.088;2022-10-16T15:17:55;1.02;;;0.60;;
75165;SDS011;63747;48.042;10.088;2022-10-16T15:20:57;2.97;;;0.50;;
75165;SDS011;63747;48.042;10.088;2022-10-16T15:23:58;2.03;;;0.60;;
75165;SDS011;63747;48.042;10.088;2022-10-16T15:27:00;6.70;;;1.40;;
75165;SDS011;63747;48.042;10.088;2022-10-16T15:30:01;4.32;;;2.10;;
75165;SDS011;63747;48.042;10.088;2022-10-16T15:33:03;2.33;;;1.38;;
75165;SDS011;63747;48.042;10.088;2022-10-16T15:36:05;2.60;;;0.88;;
75165;SDS011;63747;48.042;10.088;2022-10-16T15:39:14;3.15;;;0.80;;
75165;SDS011;63747;48.042;10.088;2022-10-16T15:42:16;2.40;;;0.98;;
75165;SDS011;63747;48.042;10.088;2022-10-16T15:45:17;2.78;;;0.90;;
75165;SDS011;63747;48.042;10.088;2022-10-16T15:48:21;2.05;;;0.90;;
75165;SDS011;63747;48.042;10.088;2022-10-16T15:51:23;2.05;;;0.80;;
75165;SDS011;63747;48.042;10.088;2022-10-16T15:54:27;3.67;;;1.00;;
75165;SDS011;63747;48.042;10.088;2022-10-16T15:57:28;6.68;;;1.52;;
75165;SDS011;63747;48.042;10.088;2022-10-16T16:00:32;35.53;;;6.22;;
75165;SDS011;63747;48.042;10.088;2022-10-16T16:03:33;25.20;;;4.20;;
75165;SDS011;63747;48.042;10.088;2022-10-16T16:10:32;9.52;;;2.30;;
75165;SDS011;63747;48.042;10.088;2022-10-16T16:13:33;9.77;;;2.15;;
75165;SDS011;63747;48.042;10.088;2022-10-16T16:16:34;9.82;;;1.60;;
75165;SDS011;63747;48.042;10.088;2022-10-16T16:23:34;11.35;;;2.30;;
75165;SDS011;63747;48.042;10.088;2022-10-16T16:26:35;8.32;;;2.05;;
75165;SDS011;63747;48.042;10.088;2022-10-16T16:29:39;8.55;;;1.90;;
75165;SDS011;63747;48.042;10.088;2022-10-16T16:32:41;9.85;;;1.98;;
75165;SDS011;63747;48.042;10.088;2022-10-16T16:35:42;6.57;;;1.50;;
75165;SDS011;63747;48.042;10.088;2022-10-16T16:38:43;6.07;;;2.63;;
75165;SDS011;63747;48.042;10.088;2022-10-16T16:41:44;15.27;;;7.88;;
75165;SDS011;63747;48.042;10.088;2022-10-16T16:48:42;6.53;;;3.78;;
75165;SDS011;63747;48.042;10.088;2022-10-16T16:55:41;6.70;;;2.67;;
75165;SDS011;63747;48.042;10.088;2022-10-16T16:58:44;9.70;;;3.15;;
75165;SDS011;63747;48.042;10.088;2022-10-16T17:05:43;7.53;;;3.50;;
75165;SDS011;63747;48.042;10.088;2022-10-16T17:12:52;5.75;;;3.58;;
75165;SDS011;63747;48.042;10.088;2022-10-16T17:22:50;9.23;;;4.57;;
75165;SDS011;63747;48.042;10.088;2022-10-16T17:29:29;7.03;;;4.35;;
75165;SDS011;63747;48.042;10.088;2022-10-16T17:35:37;8.33;;;6.30;;
75165;SDS011;63747;48.042;10.088;2022-10-16T17:38:38;11.75;;;6.70;;
75165;SDS011;63747;48.042;10.088;2022-10-16T17:45:05;17.75;;;13.80;;
75165;SDS011;63747;48.042;10.088;2022-10-16T17:48:06;19.42;;;15.55;;
75165;SDS011;63747;48.042;10.088;2022-10-16T17:55:04;20.02;;;14.23;;
75165;SDS011;63747;48.042;10.088;2022-10-16T18:01:16;20.05;;;14.10;;
75165;SDS011;63747;48.042;10.088;2022-10-16T18:08:14;23.17;;;14.98;;
75165;SDS011;63747;48.042;10.088;2022-10-16T18:15:12;15.32;;;9.75;;
75165;SDS011;63747;48.042;10.088;2022-10-16T18:22:09;13.52;;;7.25;;
75165;SDS011;63747;48.042;10.088;2022-10-16T18:25:10;11.77;;;6.15;;
75165;SDS011;63747;48.042;10.088;2022-10-16T18:28:11;16.02;;;5.80;;
75165;SDS011;63747;48.042;10.088;2022-10-16T18:31:12;10.80;;;5.00;;
75165;SDS011;63747;48.042;10.088;2022-10-16T18:38:12;12.30;;;5.10;;
75165;SDS011;63747;48.042;10.088;2022-10-16T18:45:09;7.97;;;3.13;;
75165;SDS011;63747;48.042;10.088;2022-10-16T18:48:10;7.50;;;5.07;;
75165;SDS011;63747;48.042;10.088;2022-10-16T18:54:11;6.20;;;3.78;;
75165;SDS011;63747;48.042;10.088;2022-10-16T19:01:09;6.97;;;2.60;;
75165;SDS011;63747;48.042;10.088;2022-10-16T19:08:11;5.22;;;2.80;;
75165;SDS011;63747;48.042;10.088;2022-10-16T19:15:10;10.13;;;3.40;;
75165;SDS011;63747;48.042;10.088;2022-10-16T19:22:08;8.43;;;4.75;;
75165;SDS011;63747;48.042;10.088;2022-10-16T19:29:23;9.15;;;4.25;;
75165;SDS011;63747;48.042;10.088;2022-10-16T19:32:23;13.27;;;4.88;;
75165;SDS011;63747;48.042;10.088;2022-10-16T19:39:20;6.47;;;3.60;;
75165;SDS011;63747;48.042;10.088;2022-10-16T19:42:24;4.57;;;3.03;;
75165;SDS011;63747;48.042;10.088;2022-10-16T19:45:24;4.43;;;2.75;;
75165;SDS011;63747;48.042;10.088;2022-10-16T19:52:22;5.05;;;2.30;;
75165;SDS011;63747;48.042;10.088;2022-10-16T19:59:19;5.32;;;2.13;;
75165;SDS011;63747;48.042;10.088;2022-10-16T20:06:17;8.85;;;5.45;;
75165;SDS011;63747;48.042;10.088;2022-10-16T20:09:19;5.25;;;2.22;;
75165;SDS011;63747;48.042;10.088;2022-10-16T20:12:20;6.10;;;2.40;;
75165;SDS011;63747;48.042;10.088;2022-10-16T20:19:17;10.50;;;2.72;;
75165;SDS011;63747;48.042;10.088;2022-10-16T20:26:15;12.27;;;2.63;;
75165;SDS011;63747;48.042;10.088;2022-10-16T20:29:16;15.40;;;6.78;;
75165;SDS011;63747;48.042;10.088;2022-10-16T20:36:15;13.00;;;5.32;;
75165;SDS011;63747;48.042;10.088;2022-10-16T20:43:14;11.68;;;3.30;;
75165;SDS011;63747;48.042;10.088;2022-10-16T20:50:13;9.25;;;5.20;;
75165;SDS011;63747;48.042;10.088;2022-10-16T20:53:15;8.02;;;4.63;;
75165;SDS011;63747;48.042;10.088;2022-10-16T21:04:08;9.25;;;3.85;;
75165;SDS011;63747;48.042;10.088;2022-10-16T21:07:09;6.18;;;3.80;;
75165;SDS011;63747;48.042;10.088;2022-10-16T21:14:07;13.23;;;4.53;;
75165;SDS011;63747;48.042;10.088;2022-10-16T21:17:08;8.38;;;3.70;;
75165;SDS011;63747;48.042;10.088;2022-10-16T21:24:06;8.70;;;3.28;;
75165;SDS011;63747;48.042;10.088;2022-10-16T21:27:07;8.65;;;2.60;;
75165;SDS011;63747;48.042;10.088;2022-10-16T21:34:05;6.95;;;2.28;;
75165;SDS011;63747;48.042;10.088;2022-10-16T21:37:06;9.02;;;2.50;;
75165;SDS011;63747;48.042;10.088;2022-10-16T21:44:04;8.40;;;1.95;;
75165;SDS011;63747;48.042;10.088;2022-10-16T21:47:05;6.10;;;2.50;;
75165;SDS011;63747;48.042;10.088;2022-10-16T21:50:06;4.88;;;2.15;;
75165;SDS011;63747;48.042;10.088;2022-10-16T21:53:07;6.20;;;2.45;;
75165;SDS011;63747;48.042;10.088;2022-10-16T22:00:05;7.25;;;2.50;;
75165;SDS011;63747;48.042;10.088;2022-10-16T22:03:08;4.03;;;2.10;;
75165;SDS011;63747;48.042;10.088;2022-10-16T22:06:09;4.55;;;2.28;;
75165;SDS011;63747;48.042;10.088;2022-10-16T22:09:11;5.90;;;2.15;;
75165;SDS011;63747;48.042;10.088;2022-10-16T22:16:10;6.47;;;2.22;;
75165;SDS011;63747;48.042;10.088;2022-10-16T22:19:12;8.70;;;2.65;;
75165;SDS011;63747;48.042;10.088;2022-10-16T22:22:14;10.38;;;2.70;;
75165;SDS011;63747;48.042;10.088;2022-10-16T22:25:15;11.13;;;2.65;;
75165;SDS011;63747;48.042;10.088;2022-10-16T22:28:15;3.67;;;2.00;;
75165;SDS011;63747;48.042;10.088;2022-10-16T22:35:14;6.10;;;1.55;;
75165;SDS011;63747;48.042;10.088;2022-10-16T22:38:14;3.00;;;1.80;;
75165;SDS011;63747;48.042;10.088;2022-10-16T22:41:15;8.43;;;2.00;;
75165;SDS011;63747;48.042;10.088;2022-10-16T22:44:16;7.18;;;2.30;;
75165;SDS011;63747;48.042;10.088;2022-10-16T22:47:17;4.22;;;2.22;;
75165;SDS011;63747;48.042;10.088;2022-10-16T22:50:18;5.53;;;2.37;;
75165;SDS011;63747;48.042;10.088;2022-10-16T22:57:15;6.05;;;2.25;;
75165;SDS011;63747;48.042;10.088;2022-10-16T23:04:12;6.28;;;1.92;;
75165;SDS011;63747;48.042;10.088;2022-10-16T23:07:13;7.10;;;1.87;;
75165;SDS011;63747;48.042;10.088;2022-10-16T23:10:13;5.17;;;1.90;;
75165;SDS011;63747;48.042;10.088;2022-10-16T23:13:14;8.95;;;2.20;;
75165;SDS011;63747;48.042;10.088;2022-10-16T23:16:16;7.13;;;2.00;;
75165;SDS011;63747;48.042;10.088;2022-10-16T23:19:18;10.00;;;2.83;;
75165;SDS011;63747;48.042;10.088;2022-10-16T23:22:19;4.53;;;3.40;;
75165;SDS011;63747;48.042;10.088;2022-10-16T23:25:20;6.47;;;2.70;;
75165;SDS011;63747;48.042;10.088;2022-10-16T23:28:21;4.78;;;2.90;;
75165;SDS011;63747;48.042;10.088;2022-10-16T23:35:14;6.75;;;2.55;;
75165;SDS011;63747;48.042;10.088;2022-10-16T23:38:15;7.45;;;2.30;;
75165;SDS011;63747;48.042;10.088;2022-10-16T23:41:17;6.45;;;2.67;;
75165;SDS011;63747;48.042;10.088;2022-10-16T23:48:16;6.90;;;2.20;;
75165;SDS011;63747;48.042;10.088;2022-10-16T23:55:13;2.83;;;1.70;;
75165;SDS011;63747;48.042;10.088;2022-10-16T23:58:15;4.35;;;2.03;;
